sensor_id;sensor_type;location;lat;lon;timestamp;pressure;altitude;pressure_sealevel;temperature;humidity
22047;BME280;11187;49.412;20.956;2023-02-13T00:00:41;96875.38;;;-4.25;100.00
22047;BME280;11187;49.412;20.956;2023-02-13T00:03:15;96881.34;;;-4.23;100.00
22047;BME280;11187;49.412;20.956;2023-02-13T00:06:01;96876.28;;;-4.24;100.00
22047;BME280;11187;49.412;20.956;2023-02-13T00:08:35;96877.25;;;-4.22;100.00
22047;BME280;11187;49.412;20.956;2023-02-13T00:11:28;96878.28;;;-4.18;100.00
22047;BME280;11187;49.412;20.956;2023-02-13T00:14:22;96874.28;;;-4.16;100.00
22047;BME280;11187;49.412;20.956;2023-02-13T00:16:56;96864.47;;;-4.13;100.00
22047;BME280;11187;49.412;20.956;2023-02-13T00:19:42;96866.41;;;-4.09;100.00
22047;BME280;11187;49.412;20.956;2023-02-13T00:22:16;96862.19;;;-4.10;100.00
22047;BME280;11187;49.412;20.956;2023-02-13T00:25:04;96867.06;;;-4.12;100.00
22047;BME280;11187;49.412;20.956;2023-02-13T00:27:38;96865.34;;;-4.13;100.00
22047;BME280;11187;49.412;20.956;2023-02-13T00:30:24;96866.75;;;-4.16;100.00
22047;BME280;11187;49.412;20.956;2023-02-13T00:32:59;96872.53;;;-4.17;100.00
22047;BME280;11187;49.412;20.956;2023-02-13T00:36:10;96861.00;;;-4.15;100.00
22047;BME280;11187;49.412;20.956;2023-02-13T00:38:44;96863.59;;;-4.14;100.00
22047;BME280;11187;49.412;20.956;2023-02-13T00:41:31;96856.41;;;-4.09;100.00
22047;BME280;11187;49.412;20.956;2023-02-13T00:44:05;96849.88;;;-4.07;100.00
22047;BME280;11187;49.412;20.956;2023-02-13T00:46:58;96844.28;;;-4.03;100.00
22047;BME280;11187;49.412;20.956;2023-02-13T00:49:32;96846.78;;;-4.03;100.00
22047;BME280;11187;49.412;20.956;2023-02-13T00:52:25;96847.00;;;-4.00;100.00
22047;BME280;11187;49.412;20.956;2023-02-13T00:55:19;96852.09;;;-3.99;100.00
22047;BME280;11187;49.412;20.956;2023-02-13T00:57:53;96848.25;;;-3.93;100.00
22047;BME280;11187;49.412;20.956;2023-02-13T01:00:41;96848.56;;;-3.89;100.00
22047;BME280;11187;49.412;20.956;2023-02-13T01:03:16;96845.38;;;-3.86;100.00
22047;BME280;11187;49.412;20.956;2023-02-13T01:06:04;96843.28;;;-3.80;100.00
22047;BME280;11187;49.412;20.956;2023-02-13T01:08:40;96840.88;;;-3.79;100.00
22047;BME280;11187;49.412;20.956;2023-02-13T01:11:27;96837.03;;;-3.73;100.00
22047;BME280;11187;49.412;20.956;2023-02-13T01:14:01;96839.94;;;-3.67;100.00
22047;BME280;11187;49.412;20.956;2023-02-13T01:16:47;96825.09;;;-3.64;100.00
22047;BME280;11187;49.412;20.956;2023-02-13T01:19:21;96814.41;;;-3.62;100.00
22047;BME280;11187;49.412;20.956;2023-02-13T01:22:07;96817.31;;;-3.55;100.00
22047;BME280;11187;49.412;20.956;2023-02-13T01:24:41;96816.75;;;-3.51;100.00
22047;BME280;11187;49.412;20.956;2023-02-13T01:27:28;96814.59;;;-3.45;100.00
22047;BME280;11187;49.412;20.956;2023-02-13T01:30:01;96809.81;;;-3.42;100.00
22047;BME280;11187;49.412;20.956;2023-02-13T01:32:57;96804.22;;;-3.38;100.00
22047;BME280;11187;49.412;20.956;2023-02-13T01:35:51;96805.47;;;-3.31;100.00
22047;BME280;11187;49.412;20.956;2023-02-13T01:38:25;96797.28;;;-3.29;100.00
22047;BME280;11187;49.412;20.956;2023-02-13T01:41:19;96809.88;;;-3.27;100.00
22047;BME280;11187;49.412;20.956;2023-02-13T01:47:26;96798.13;;;-3.28;100.00
22047;BME280;11187;49.412;20.956;2023-02-13T01:50:36;96794.94;;;-3.26;100.00
22047;BME280;11187;49.412;20.956;2023-02-13T01:53:39;96790.78;;;-3.25;100.00
22047;BME280;11187;49.412;20.956;2023-02-13T01:56:25;96784.34;;;-3.22;100.00
22047;BME280;11187;49.412;20.956;2023-02-13T01:59:17;96777.81;;;-3.20;100.00
22047;BME280;11187;49.412;20.956;2023-02-13T02:01:51;96777.97;;;-3.17;100.00
22047;BME280;11187;49.412;20.956;2023-02-13T02:04:40;96779.03;;;-3.13;100.00
22047;BME280;11187;49.412;20.956;2023-02-13T02:07:19;96779.03;;;-3.13;100.00
22047;BME280;11187;49.412;20.956;2023-02-13T02:10:18;96777.28;;;-3.14;100.00
22047;BME280;11187;49.412;20.956;2023-02-13T02:13:03;96773.94;;;-3.15;100.00
22047;BME280;11187;49.412;20.956;2023-02-13T02:15:58;96779.78;;;-3.14;100.00
22047;BME280;11187;49.412;20.956;2023-02-13T02:18:52;96781.94;;;-3.20;100.00
22047;BME280;11187;49.412;20.956;2023-02-13T02:36:56;96772.63;;;-3.36;100.00
22047;BME280;11187;49.412;20.956;2023-02-13T02:45:55;96761.09;;;-3.47;100.00
22047;BME280;11187;49.412;20.956;2023-02-13T02:55:09;96758.38;;;-3.50;100.00
22047;BME280;11187;49.412;20.956;2023-02-13T02:58:12;96765.19;;;-3.48;100.00
22047;BME280;11187;49.412;20.956;2023-02-13T03:01:11;96767.63;;;-3.49;100.00
22047;BME280;11187;49.412;20.956;2023-02-13T03:04:41;96776.75;;;-3.50;100.00
22047;BME280;11187;49.412;20.956;2023-02-13T03:07:55;96774.84;;;-3.54;100.00
22047;BME280;11187;49.412;20.956;2023-02-13T03:10:31;96775.72;;;-3.53;100.00
22047;BME280;11187;49.412;20.956;2023-02-13T03:13:47;96763.09;;;-3.55;100.00
22047;BME280;11187;49.412;20.956;2023-02-13T03:16:43;96757.34;;;-3.54;100.00
22047;BME280;11187;49.412;20.956;2023-02-13T03:32:42;96749.22;;;-3.50;100.00
22047;BME280;11187;49.412;20.956;2023-02-13T03:44:42;96762.31;;;-3.41;100.00
22047;BME280;11187;49.412;20.956;2023-02-13T03:47:16;96759.22;;;-3.37;100.00
22047;BME280;11187;49.412;20.956;2023-02-13T03:50:11;96755.38;;;-3.31;100.00
22047;BME280;11187;49.412;20.956;2023-02-13T03:53:09;96750.66;;;-3.27;100.00
22047;BME280;11187;49.412;20.956;2023-02-13T03:55:46;96761.59;;;-3.25;100.00
22047;BME280;11187;49.412;20.956;2023-02-13T03:58:54;96762.78;;;-3.20;100.00
22047;BME280;11187;49.412;20.956;2023-02-13T04:02:08;96769.69;;;-3.16;100.00
22047;BME280;11187;49.412;20.956;2023-02-13T04:05:07;96773.13;;;-3.13;100.00
22047;BME280;11187;49.412;20.956;2023-02-13T04:07:43;96779.22;;;-3.10;100.00
22047;BME280;11187;49.412;20.956;2023-02-13T04:10:41;96777.84;;;-3.05;100.00
22047;BME280;11187;49.412;20.956;2023-02-13T04:13:31;96785.63;;;-3.00;100.00
22047;BME280;11187;49.412;20.956;2023-02-13T04:16:32;96783.13;;;-3.00;100.00
22047;BME280;11187;49.412;20.956;2023-02-13T04:19:26;96780.56;;;-3.02;100.00
22047;BME280;11187;49.412;20.956;2023-02-13T04:22:00;96786.53;;;-3.00;100.00
22047;BME280;11187;49.412;20.956;2023-02-13T04:24:48;96783.22;;;-2.99;100.00
22047;BME280;11187;49.412;20.956;2023-02-13T04:27:24;96780.91;;;-2.96;100.00
22047;BME280;11187;49.412;20.956;2023-02-13T04:30:13;96774.34;;;-2.94;100.00
22047;BME280;11187;49.412;20.956;2023-02-13T04:32:46;96771.78;;;-2.95;100.00
22047;BME280;11187;49.412;20.956;2023-02-13T04:35:32;96786.81;;;-2.95;100.00
22047;BME280;11187;49.412;20.956;2023-02-13T04:38:07;96785.06;;;-2.96;100.00
22047;BME280;11187;49.412;20.956;2023-02-13T04:40:54;96783.50;;;-2.94;100.00
22047;BME280;11187;49.412;20.956;2023-02-13T04:43:28;96785.50;;;-2.88;100.00
22047;BME280;11187;49.412;20.956;2023-02-13T04:46:14;96780.59;;;-2.87;100.00
22047;BME280;11187;49.412;20.956;2023-02-13T04:48:48;96772.38;;;-2.84;100.00
22047;BME280;11187;49.412;20.956;2023-02-13T04:51:34;96789.25;;;-2.82;100.00
22047;BME280;11187;49.412;20.956;2023-02-13T04:54:09;96776.06;;;-2.79;100.00
22047;BME280;11187;49.412;20.956;2023-02-13T04:56:56;96794.53;;;-2.77;100.00
22047;BME280;11187;49.412;20.956;2023-02-13T04:59:30;96787.97;;;-2.75;100.00
22047;BME280;11187;49.412;20.956;2023-02-13T05:02:16;96786.44;;;-2.73;100.00
22047;BME280;11187;49.412;20.956;2023-02-13T05:04:50;96777.34;;;-2.71;100.00
22047;BME280;11187;49.412;20.956;2023-02-13T05:07:43;96776.78;;;-2.67;100.00
22047;BME280;11187;49.412;20.956;2023-02-13T05:10:17;96785.94;;;-2.67;100.00
22047;BME280;11187;49.412;20.956;2023-02-13T05:13:04;96780.22;;;-2.65;100.00
22047;BME280;11187;49.412;20.956;2023-02-13T05:15:38;96782.16;;;-2.61;100.00
22047;BME280;11187;49.412;20.956;2023-02-13T05:18:32;96780.78;;;-2.56;100.00
22047;BME280;11187;49.412;20.956;2023-02-13T05:21:26;96789.41;;;-2.50;100.00
22047;BME280;11187;49.412;20.956;2023-02-13T05:24:38;96776.72;;;-2.54;100.00
22047;BME280;11187;49.412;20.956;2023-02-13T05:27:32;96785.19;;;-2.52;100.00
22047;BME280;11187;49.412;20.956;2023-02-13T05:30:06;96784.41;;;-2.50;100.00
22047;BME280;11187;49.412;20.956;2023-02-13T05:32:54;96778.69;;;-2.48;100.00
22047;BME280;11187;49.412;20.956;2023-02-13T05:35:29;96779.66;;;-2.46;100.00
22047;BME280;11187;49.412;20.956;2023-02-13T05:38:15;96788.13;;;-2.44;100.00
22047;BME280;11187;49.412;20.956;2023-02-13T05:40:49;96775.50;;;-2.45;100.00
22047;BME280;11187;49.412;20.956;2023-02-13T05:43:35;96790.56;;;-2.45;100.00
22047;BME280;11187;49.412;20.956;2023-02-13T05:46:09;96792.31;;;-2.44;100.00
22047;BME280;11187;49.412;20.956;2023-02-13T05:48:55;96788.25;;;-2.42;100.00
22047;BME280;11187;49.412;20.956;2023-02-13T05:51:49;96791.44;;;-2.45;100.00
22047;BME280;11187;49.412;20.956;2023-02-13T05:54:24;96801.53;;;-2.43;100.00
22047;BME280;11187;49.412;20.956;2023-02-13T05:57:18;96794.28;;;-2.39;100.00
22047;BME280;11187;49.412;20.956;2023-02-13T06:00:14;96796.13;;;-2.36;100.00
22047;BME280;11187;49.412;20.956;2023-02-13T06:02:48;96791.28;;;-2.33;100.00
22047;BME280;11187;49.412;20.956;2023-02-13T06:05:34;96786.38;;;-2.32;100.00
22047;BME280;11187;49.412;20.956;2023-02-13T06:08:08;96787.28;;;-2.29;100.00
22047;BME280;11187;49.412;20.956;2023-02-13T06:10:54;96787.38;;;-2.28;100.00
22047;BME280;11187;49.412;20.956;2023-02-13T06:13:28;96783.31;;;-2.26;100.00
22047;BME280;11187;49.412;20.956;2023-02-13T06:16:20;96786.78;;;-2.24;100.00
22047;BME280;11187;49.412;20.956;2023-02-13T06:18:54;96788.72;;;-2.20;100.00
22047;BME280;11187;49.412;20.956;2023-02-13T06:21:40;96777.13;;;-2.18;100.00
22047;BME280;11187;49.412;20.956;2023-02-13T06:24:14;96784.81;;;-2.15;100.00
22047;BME280;11187;49.412;20.956;2023-02-13T06:27:00;96785.75;;;-2.13;100.00
22047;BME280;11187;49.412;20.956;2023-02-13T06:29:34;96783.53;;;-2.08;100.00
22047;BME280;11187;49.412;20.956;2023-02-13T06:32:20;96779.47;;;-2.06;100.00
22047;BME280;11187;49.412;20.956;2023-02-13T06:34:54;96772.19;;;-2.01;100.00
22047;BME280;11187;49.412;20.956;2023-02-13T06:37:43;96777.47;;;-1.97;100.00
22047;BME280;11187;49.412;20.956;2023-02-13T06:40:20;96775.91;;;-1.95;100.00
22047;BME280;11187;49.412;20.956;2023-02-13T06:43:06;96782.03;;;-1.90;100.00
22047;BME280;11187;49.412;20.956;2023-02-13T06:45:40;96790.63;;;-1.86;100.00
22047;BME280;11187;49.412;20.956;2023-02-13T06:48:27;96779.94;;;-1.82;100.00
22047;BME280;11187;49.412;20.956;2023-02-13T06:51:01;96783.59;;;-1.77;100.00
22047;BME280;11187;49.412;20.956;2023-02-13T06:53:47;96782.97;;;-1.73;100.00
22047;BME280;11187;49.412;20.956;2023-02-13T06:56:21;96786.53;;;-1.69;100.00
22047;BME280;11187;49.412;20.956;2023-02-13T06:59:07;96791.03;;;-1.63;100.00
22047;BME280;11187;49.412;20.956;2023-02-13T07:01:41;96794.56;;;-1.60;100.00
22047;BME280;11187;49.412;20.956;2023-02-13T07:04:34;96796.31;;;-1.59;100.00
22047;BME280;11187;49.412;20.956;2023-02-13T07:07:32;96797.34;;;-1.55;100.00
22047;BME280;11187;49.412;20.956;2023-02-13T07:10:09;96797.53;;;-1.52;100.00
22047;BME280;11187;49.412;20.956;2023-02-13T07:13:03;96800.19;;;-1.49;100.00
22047;BME280;11187;49.412;20.956;2023-02-13T07:15:36;96797.84;;;-1.46;100.00
22047;BME280;11187;49.412;20.956;2023-02-13T07:18:23;96802.09;;;-1.45;100.00
22047;BME280;11187;49.412;20.956;2023-02-13T07:20:57;96797.94;;;-1.44;100.00
22047;BME280;11187;49.412;20.956;2023-02-13T07:23:43;96804.94;;;-1.39;100.00
22047;BME280;11187;49.412;20.956;2023-02-13T07:26:17;96805.19;;;-1.34;100.00
22047;BME280;11187;49.412;20.956;2023-02-13T07:29:11;96806.56;;;-1.24;100.00
22047;BME280;11187;49.412;20.956;2023-02-13T07:32:05;96811.91;;;-1.18;100.00
22047;BME280;11187;49.412;20.956;2023-02-13T07:34:59;96812.31;;;-1.11;100.00
22047;BME280;11187;49.412;20.956;2023-02-13T07:37:33;96807.69;;;-1.03;100.00
22047;BME280;11187;49.412;20.956;2023-02-13T07:40:20;96801.50;;;-0.93;100.00
22047;BME280;11187;49.412;20.956;2023-02-13T07:42:53;96797.75;;;-0.85;100.00
22047;BME280;11187;49.412;20.956;2023-02-13T07:45:40;96788.88;;;-0.78;100.00
22047;BME280;11187;49.412;20.956;2023-02-13T07:48:14;96800.28;;;-0.69;100.00
22047;BME280;11187;49.412;20.956;2023-02-13T07:51:08;96794.09;;;-0.59;100.00
22047;BME280;11187;49.412;20.956;2023-02-13T07:53:41;96788.59;;;-0.52;100.00
22047;BME280;11187;49.412;20.956;2023-02-13T07:56:27;96793.22;;;-0.43;100.00
22047;BME280;11187;49.412;20.956;2023-02-13T07:59:01;96794.38;;;-0.36;100.00
22047;BME280;11187;49.412;20.956;2023-02-13T08:01:54;96795.53;;;-0.30;100.00
22047;BME280;11187;49.412;20.956;2023-02-13T08:04:48;96800.97;;;-0.22;100.00
22047;BME280;11187;49.412;20.956;2023-02-13T08:07:22;96799.78;;;-0.12;100.00
22047;BME280;11187;49.412;20.956;2023-02-13T08:10:11;96797.72;;;-0.03;100.00
22047;BME280;11187;49.412;20.956;2023-02-13T08:13:04;96789.84;;;0.07;100.00
22047;BME280;11187;49.412;20.956;2023-02-13T08:15:58;96792.09;;;0.19;100.00
22047;BME280;11187;49.412;20.956;2023-02-13T08:18:32;96789.94;;;0.27;100.00
22047;BME280;11187;49.412;20.956;2023-02-13T08:21:25;96788.75;;;0.36;100.00
22047;BME280;11187;49.412;20.956;2023-02-13T08:23:59;96791.59;;;0.44;100.00
22047;BME280;11187;49.412;20.956;2023-02-13T08:26:45;96791.09;;;0.51;100.00
22047;BME280;11187;49.412;20.956;2023-02-13T08:29:21;96787.34;;;0.61;100.00
22047;BME280;11187;49.412;20.956;2023-02-13T08:32:14;96785.47;;;0.75;100.00
22047;BME280;11187;49.412;20.956;2023-02-13T08:35:08;96781.75;;;0.85;100.00
22047;BME280;11187;49.412;20.956;2023-02-13T08:37:42;96773.66;;;0.92;100.00
22047;BME280;11187;49.412;20.956;2023-02-13T08:40:35;96773.94;;;0.98;100.00
22047;BME280;11187;49.412;20.956;2023-02-13T08:43:09;96775.09;;;1.04;100.00
22047;BME280;11187;49.412;20.956;2023-02-13T08:46:02;96767.78;;;1.11;100.00
22047;BME280;11187;49.412;20.956;2023-02-13T08:48:36;96768.91;;;1.17;100.00
22047;BME280;11187;49.412;20.956;2023-02-13T08:51:29;96765.94;;;1.26;100.00
22047;BME280;11187;49.412;20.956;2023-02-13T08:54:23;96773.03;;;1.35;100.00
22047;BME280;11187;49.412;20.956;2023-02-13T08:57:17;96764.09;;;1.41;100.00
22047;BME280;11187;49.412;20.956;2023-02-13T08:59:51;96770.31;;;1.50;100.00
22047;BME280;11187;49.412;20.956;2023-02-13T09:02:37;96762.94;;;1.54;100.00
22047;BME280;11187;49.412;20.956;2023-02-13T09:05:11;96769.19;;;1.62;100.00
22047;BME280;11187;49.412;20.956;2023-02-13T09:08:04;96769.56;;;1.72;100.00
22047;BME280;11187;49.412;20.956;2023-02-13T09:10:44;96756.16;;;1.73;100.00
22047;BME280;11187;49.412;20.956;2023-02-13T09:13:38;96760.59;;;1.78;100.00
22047;BME280;11187;49.412;20.956;2023-02-13T09:16:31;96756.66;;;1.85;100.00
22047;BME280;11187;49.412;20.956;2023-02-13T09:19:06;96756.75;;;1.86;100.00
22047;BME280;11187;49.412;20.956;2023-02-13T09:21:59;96756.59;;;1.83;100.00
22047;BME280;11187;49.412;20.956;2023-02-13T09:24:53;96754.25;;;1.88;100.00
22047;BME280;11187;49.412;20.956;2023-02-13T09:27:49;96753.72;;;1.95;100.00
22047;BME280;11187;49.412;20.956;2023-02-13T09:30:43;96757.69;;;2.09;100.00
22047;BME280;11187;49.412;20.956;2023-02-13T09:33:17;96751.22;;;2.16;100.00
22047;BME280;11187;49.412;20.956;2023-02-13T09:36:09;96748.03;;;2.20;100.00
22047;BME280;11187;49.412;20.956;2023-02-13T09:38:43;96744.78;;;2.24;100.00
22047;BME280;11187;49.412;20.956;2023-02-13T09:41:40;96750.91;;;2.29;100.00
22047;BME280;11187;49.412;20.956;2023-02-13T09:44:43;96746.75;;;2.32;100.00
22047;BME280;11187;49.412;20.956;2023-02-13T09:47:31;96744.28;;;2.33;100.00
22047;BME280;11187;49.412;20.956;2023-02-13T09:50:24;96746.94;;;2.36;100.00
22047;BME280;11187;49.412;20.956;2023-02-13T09:53:22;96750.81;;;2.49;100.00
22047;BME280;11187;49.412;20.956;2023-02-13T09:56:16;96752.66;;;2.53;100.00
22047;BME280;11187;49.412;20.956;2023-02-13T09:59:36;96753.69;;;2.58;100.00
22047;BME280;11187;49.412;20.956;2023-02-13T10:15:07;96749.06;;;2.69;100.00
22047;BME280;11187;49.412;20.956;2023-02-13T10:17:55;96745.03;;;2.74;100.00
22047;BME280;11187;49.412;20.956;2023-02-13T10:20:55;96740.97;;;2.78;100.00
22047;BME280;11187;49.412;20.956;2023-02-13T10:23:39;96741.91;;;2.80;100.00
22047;BME280;11187;49.412;20.956;2023-02-13T10:26:37;96737.00;;;2.84;100.00
22047;BME280;11187;49.412;20.956;2023-02-13T10:30:00;96729.28;;;2.81;100.00
22047;BME280;11187;49.412;20.956;2023-02-13T10:32:40;96725.22;;;2.85;100.00
22047;BME280;11187;49.412;20.956;2023-02-13T10:35:30;96716.19;;;2.91;100.00
22047;BME280;11187;49.412;20.956;2023-02-13T10:38:13;96716.25;;;2.93;100.00
22047;BME280;11187;49.412;20.956;2023-02-13T10:41:47;96717.72;;;2.88;100.00
22047;BME280;11187;49.412;20.956;2023-02-13T10:44:38;96713.56;;;2.88;100.00
22047;BME280;11187;49.412;20.956;2023-02-13T10:47:50;96716.28;;;2.95;100.00
22047;BME280;11187;49.412;20.956;2023-02-13T10:50:45;96708.94;;;3.01;100.00
22047;BME280;11187;49.412;20.956;2023-02-13T10:56:41;96703.13;;;3.03;100.00
22047;BME280;11187;49.412;20.956;2023-02-13T11:00:03;96692.38;;;3.09;100.00
22047;BME280;11187;49.412;20.956;2023-02-13T11:02:36;96679.81;;;3.12;100.00
22047;BME280;11187;49.412;20.956;2023-02-13T11:05:27;96678.97;;;3.11;100.00
22047;BME280;11187;49.412;20.956;2023-02-13T11:08:02;96681.44;;;3.10;100.00
22047;BME280;11187;49.412;20.956;2023-02-13T11:10:50;96671.84;;;3.25;100.00
22047;BME280;11187;49.412;20.956;2023-02-13T11:13:26;96666.44;;;3.40;100.00
22047;BME280;11187;49.412;20.956;2023-02-13T11:16:13;96669.13;;;3.45;100.00
22047;BME280;11187;49.412;20.956;2023-02-13T11:18:48;96676.13;;;3.52;100.00
22047;BME280;11187;49.412;20.956;2023-02-13T11:21:36;96670.63;;;3.64;100.00
22047;BME280;11187;49.412;20.956;2023-02-13T11:24:19;96669.31;;;3.75;100.00
22047;BME280;11187;49.412;20.956;2023-02-13T11:27:13;96674.63;;;3.83;100.00
22047;BME280;11187;49.412;20.956;2023-02-13T11:30:03;96665.25;;;3.80;100.00
22047;BME280;11187;49.412;20.956;2023-02-13T11:33:05;96662.81;;;3.83;100.00
22047;BME280;11187;49.412;20.956;2023-02-13T11:35:39;96662.31;;;3.93;100.00
22047;BME280;11187;49.412;20.956;2023-02-13T11:38:33;96662.69;;;4.06;99.48
22047;BME280;11187;49.412;20.956;2023-02-13T11:41:08;96668.06;;;4.15;99.00
22047;BME280;11187;49.412;20.956;2023-02-13T11:44:26;96658.16;;;4.23;97.52
22047;BME280;11187;49.412;20.956;2023-02-13T11:47:36;96661.78;;;4.31;97.52
22047;BME280;11187;49.412;20.956;2023-02-13T11:50:33;96656.97;;;4.38;96.57
22047;BME280;11187;49.412;20.956;2023-02-13T11:53:35;96666.19;;;4.36;96.37
22047;BME280;11187;49.412;20.956;2023-02-13T11:56:12;96656.81;;;4.34;96.81
22047;BME280;11187;49.412;20.956;2023-02-13T11:59:01;96653.31;;;4.30;96.71
22047;BME280;11187;49.412;20.956;2023-02-13T12:01:35;96659.31;;;4.32;96.42
22047;BME280;11187;49.412;20.956;2023-02-13T12:04:22;96647.56;;;4.36;95.90
22047;BME280;11187;49.412;20.956;2023-02-13T12:09:47;96652.16;;;4.48;96.51
22047;BME280;11187;49.412;20.956;2023-02-13T12:12:27;96652.19;;;4.49;97.00
22047;BME280;11187;49.412;20.956;2023-02-13T12:15:25;96651.28;;;4.47;96.63
22047;BME280;11187;49.412;20.956;2023-02-13T12:18:11;96650.47;;;4.48;96.89
22047;BME280;11187;49.412;20.956;2023-02-13T12:23:48;96648.13;;;4.54;96.74
22047;BME280;11187;49.412;20.956;2023-02-13T12:26:43;96645.63;;;4.56;96.11
22047;BME280;11187;49.412;20.956;2023-02-13T12:48:32;96629.06;;;4.38;96.46
22047;BME280;11187;49.412;20.956;2023-02-13T12:57:10;96623.88;;;4.35;97.26
22047;BME280;11187;49.412;20.956;2023-02-13T13:03:34;96612.56;;;4.24;97.45
22047;BME280;11187;49.412;20.956;2023-02-13T13:06:38;96608.50;;;4.29;97.61
22047;BME280;11187;49.412;20.956;2023-02-13T13:21:51;96617.69;;;4.26;97.93
22047;BME280;11187;49.412;20.956;2023-02-13T13:27:43;96620.22;;;4.26;98.20
22047;BME280;11187;49.412;20.956;2023-02-13T13:30:29;96618.53;;;4.26;98.22
22047;BME280;11187;49.412;20.956;2023-02-13T13:33:19;96615.94;;;4.23;98.09
22047;BME280;11187;49.412;20.956;2023-02-13T13:41:59;96616.84;;;3.98;99.33
22047;BME280;11187;49.412;20.956;2023-02-13T13:51:32;96607.47;;;3.95;99.84
22047;BME280;11187;49.412;20.956;2023-02-13T13:54:24;96604.94;;;3.95;100.00
22047;BME280;11187;49.412;20.956;2023-02-13T13:57:07;96601.53;;;3.95;99.87
22047;BME280;11187;49.412;20.956;2023-02-13T13:59:56;96592.16;;;3.92;100.00
22047;BME280;11187;49.412;20.956;2023-02-13T14:05:58;96603.97;;;3.92;100.00
22047;BME280;11187;49.412;20.956;2023-02-13T14:08:58;96596.38;;;3.92;100.00
22047;BME280;11187;49.412;20.956;2023-02-13T14:11:40;96596.38;;;3.92;100.00
22047;BME280;11187;49.412;20.956;2023-02-13T14:17:01;96595.25;;;3.84;100.00
22047;BME280;11187;49.412;20.956;2023-02-13T14:19:51;96593.56;;;3.83;100.00
22047;BME280;11187;49.412;20.956;2023-02-13T14:22:31;96581.66;;;3.80;100.00
22047;BME280;11187;49.412;20.956;2023-02-13T14:25:25;96588.28;;;3.76;100.00
22047;BME280;11187;49.412;20.956;2023-02-13T14:28:02;96580.53;;;3.72;100.00
22047;BME280;11187;49.412;20.956;2023-02-13T14:31:38;96576.19;;;3.68;100.00
22047;BME280;11187;49.412;20.956;2023-02-13T14:42:59;96570.38;;;3.45;100.00
22047;BME280;11187;49.412;20.956;2023-02-13T14:45:45;96576.28;;;3.44;100.00
22047;BME280;11187;49.412;20.956;2023-02-13T14:48:38;96575.38;;;3.42;100.00
22047;BME280;11187;49.412;20.956;2023-02-13T14:51:33;96577.66;;;3.34;100.00
22047;BME280;11187;49.412;20.956;2023-02-13T14:54:37;96579.88;;;3.25;100.00
22047;BME280;11187;49.412;20.956;2023-02-13T14:57:42;96565.25;;;3.16;100.00
22047;BME280;11187;49.412;20.956;2023-02-13T15:03:51;96551.56;;;3.11;100.00
22047;BME280;11187;49.412;20.956;2023-02-13T15:06:29;96549.69;;;3.05;100.00
22047;BME280;11187;49.412;20.956;2023-02-13T15:09:27;96542.75;;;3.00;100.00
22047;BME280;11187;49.412;20.956;2023-02-13T15:12:02;96533.28;;;2.94;100.00
22047;BME280;11187;49.412;20.956;2023-02-13T15:14:49;96534.84;;;2.90;100.00
22047;BME280;11187;49.412;20.956;2023-02-13T15:17:27;96528.78;;;2.85;100.00
22047;BME280;11187;49.412;20.956;2023-02-13T15:20:29;96529.44;;;2.80;100.00
22047;BME280;11187;49.412;20.956;2023-02-13T15:23:04;96528.47;;;2.76;100.00
22047;BME280;11187;49.412;20.956;2023-02-13T15:26:03;96533.47;;;2.75;100.00
22047;BME280;11187;49.412;20.956;2023-02-13T15:28:37;96531.59;;;2.69;100.00
22047;BME280;11187;49.412;20.956;2023-02-13T15:31:24;96531.50;;;2.66;100.00
22047;BME280;11187;49.412;20.956;2023-02-13T15:33:57;96523.91;;;2.66;100.00
22047;BME280;11187;49.412;20.956;2023-02-13T15:36:45;96525.47;;;2.62;100.00
22047;BME280;11187;49.412;20.956;2023-02-13T15:39:23;96532.88;;;2.58;100.00
22047;BME280;11187;49.412;20.956;2023-02-13T15:42:10;96533.50;;;2.52;100.00
22047;BME280;11187;49.412;20.956;2023-02-13T15:44:50;96534.16;;;2.46;100.00
22047;BME280;11187;49.412;20.956;2023-02-13T15:47:38;96530.72;;;2.44;100.00
22047;BME280;11187;49.412;20.956;2023-02-13T15:50:37;96528.13;;;2.43;100.00
22047;BME280;11187;49.412;20.956;2023-02-13T15:53:31;96533.84;;;2.37;100.00
22047;BME280;11187;49.412;20.956;2023-02-13T15:56:26;96533.78;;;2.36;100.00
22047;BME280;11187;49.412;20.956;2023-02-13T15:59:00;96531.16;;;2.33;100.00
22047;BME280;11187;49.412;20.956;2023-02-13T16:01:54;96537.72;;;2.27;100.00
22047;BME280;11187;49.412;20.956;2023-02-13T16:04:28;96535.88;;;2.23;100.00
22047;BME280;11187;49.412;20.956;2023-02-13T16:07:16;96538.31;;;2.20;100.00
22047;BME280;11187;49.412;20.956;2023-02-13T16:09:49;96542.38;;;2.17;100.00
22047;BME280;11187;49.412;20.956;2023-02-13T16:12:45;96544.72;;;2.12;100.00
22047;BME280;11187;49.412;20.956;2023-02-13T16:15:41;96523.59;;;2.10;100.00
22047;BME280;11187;49.412;20.956;2023-02-13T16:18:36;96537.03;;;2.09;100.00
22047;BME280;11187;49.412;20.956;2023-02-13T16:21:09;96534.38;;;2.06;100.00
22047;BME280;11187;49.412;20.956;2023-02-13T16:24:00;96543.69;;;2.07;100.00
22047;BME280;11187;49.412;20.956;2023-02-13T16:26:34;96540.19;;;2.03;100.00
22047;BME280;11187;49.412;20.956;2023-02-13T16:29:24;96528.38;;;2.02;100.00
22047;BME280;11187;49.412;20.956;2023-02-13T16:32:08;96536.72;;;2.01;100.00
22047;BME280;11187;49.412;20.956;2023-02-13T16:35:16;96536.63;;;1.98;100.00
22047;BME280;11187;49.412;20.956;2023-02-13T16:43:56;96557.44;;;1.93;100.00
22047;BME280;11187;49.412;20.956;2023-02-13T16:46:35;96552.41;;;1.93;100.00
22047;BME280;11187;49.412;20.956;2023-02-13T16:49:25;96548.94;;;1.91;100.00
22047;BME280;11187;49.412;20.956;2023-02-13T16:52:18;96559.03;;;1.89;100.00
22047;BME280;11187;49.412;20.956;2023-02-13T16:55:13;96559.81;;;1.88;100.00
22047;BME280;11187;49.412;20.956;2023-02-13T16:57:47;96561.41;;;1.86;100.00
22047;BME280;11187;49.412;20.956;2023-02-13T17:00:34;96557.25;;;1.86;100.00
22047;BME280;11187;49.412;20.956;2023-02-13T17:03:08;96551.25;;;1.84;100.00